sensor_id;sensor_type;location;lat;lon;timestamp;pressure;altitude;pressure_sealevel;temperature;humidity
44531;BME280;30240;47.418;0.700;2023-10-08T00:01:43;101313.73291015625;;;16.89;67.5
44531;BME280;30240;47.418;0.700;2023-10-08T00:04:09;101309.95483398438;;;16.86;67.89
44531;BME280;30240;47.418;0.700;2023-10-08T00:06:33;101309.95483398438;;;16.86;67.89
44531;BME280;30240;47.418;0.700;2023-10-08T00:08:58;101309.60693359375;;;16.73;68.28
44531;BME280;30240;47.418;0.700;2023-10-08T00:11:23;101309.16137695312;;;16.61;68.73
44531;BME280;30240;47.418;0.700;2023-10-08T00:13:48;101305.45043945312;;;16.4;68.96
44531;BME280;30240;47.418;0.700;2023-10-08T00:16:14;101306.56127929688;;;16.41;69.24
44531;BME280;30240;47.418;0.700;2023-10-08T00:18:38;101306.56127929688;;;16.41;69.24
44531;BME280;30240;47.418;0.700;2023-10-08T00:21:04;101302.16674804688;;;16.06;69.97
44531;BME280;30240;47.418;0.700;2023-10-08T00:23:28;101298.779296875;;;16.06;70.65
44531;BME280;30240;47.418;0.700;2023-10-08T00:25:54;101303.515625;;;16.09;70.4
44531;BME280;30240;47.418;0.700;2023-10-08T00:28:18;101301.20239257812;;;16.05;70.4
44531;BME280;30240;47.418;0.700;2023-10-08T00:30:43;101301.20239257812;;;16.05;70.4
44531;BME280;30240;47.418;0.700;2023-10-08T00:33:09;101300.93994140625;;;16.03;70.35
44531;BME280;30240;47.418;0.700;2023-10-08T00:35:36;101298.52905273438;;;15.95;70.37
44531;BME280;30240;47.418;0.700;2023-10-08T00:37:58;101301.6845703125;;;15.85;71.29
44531;BME280;30240;47.418;0.700;2023-10-08T00:40:24;101300.28686523438;;;15.57;71.96
44531;BME280;30240;47.418;0.700;2023-10-08T00:42:48;101300.28686523438;;;15.57;71.96
44531;BME280;30240;47.418;0.700;2023-10-08T00:45:13;101301.513671875;;;15.5;72.02
44531;BME280;30240;47.418;0.700;2023-10-08T00:47:39;101300.86059570312;;;15.42;72.52
44531;BME280;30240;47.418;0.700;2023-10-08T00:50:04;101297.71728515625;;;15.3;72.89
44531;BME280;30240;47.418;0.700;2023-10-08T00:52:29;101298.93188476562;;;15.1;73.59
44531;BME280;30240;47.418;0.700;2023-10-08T00:54:53;101298.93188476562;;;15.1;73.59
44531;BME280;30240;47.418;0.700;2023-10-08T00:57:22;101295.25146484375;;;14.99;73.83
44531;BME280;30240;47.418;0.700;2023-10-08T00:59:43;101287.7197265625;;;15.02;73.98
44531;BME280;30240;47.418;0.700;2023-10-08T01:02:09;101285.26611328125;;;15.06;73.98
44531;BME280;30240;47.418;0.700;2023-10-08T01:04:33;101281.0302734375;;;15.18;74.12
44531;BME280;30240;47.418;0.700;2023-10-08T01:07:00;101281.0302734375;;;15.18;74.12
44531;BME280;30240;47.418;0.700;2023-10-08T01:09:23;101280.7373046875;;;15.12;73.92
44531;BME280;30240;47.418;0.700;2023-10-08T01:12:11;101277.5390625;;;15.19;74.14
44531;BME280;30240;47.418;0.700;2023-10-08T01:14:13;101275.68969726562;;;15.06;73.88
44531;BME280;30240;47.418;0.700;2023-10-08T01:16:38;101281.40869140625;;;14.67;74.84
44531;BME280;30240;47.418;0.700;2023-10-08T01:19:04;101287.6708984375;;;14.59;75.46
44531;BME280;30240;47.418;0.700;2023-10-08T01:21:28;101287.6708984375;;;14.59;75.46
44531;BME280;30240;47.418;0.700;2023-10-08T01:23:53;101286.92016601562;;;14.59;75.62
44531;BME280;30240;47.418;0.700;2023-10-08T01:26:19;101287.56103515625;;;14.5;75.72
44531;BME280;30240;47.418;0.700;2023-10-08T01:28:44;101290.27099609375;;;14.63;75.75
44531;BME280;30240;47.418;0.700;2023-10-08T01:31:09;101286.52954101562;;;14.61;75.73
44531;BME280;30240;47.418;0.700;2023-10-08T01:33:34;101286.52954101562;;;14.61;75.73
44531;BME280;30240;47.418;0.700;2023-10-08T01:35:59;101288.7939453125;;;14.66;75.58
44531;BME280;30240;47.418;0.700;2023-10-08T01:38:23;101287.6708984375;;;14.63;76.12
44531;BME280;30240;47.418;0.700;2023-10-08T01:40:49;101286.63940429688;;;14.63;75.77
44531;BME280;30240;47.418;0.700;2023-10-08T01:43:13;101285.32104492188;;;14.49;76.12
44531;BME280;30240;47.418;0.700;2023-10-08T01:45:38;101285.32104492188;;;14.49;76.12
44531;BME280;30240;47.418;0.700;2023-10-08T01:48:04;101284.73510742188;;;14.47;76.35
44531;BME280;30240;47.418;0.700;2023-10-08T01:50:28;101287.42065429688;;;14.53;76.65
44531;BME280;30240;47.418;0.700;2023-10-08T01:52:53;101287.75024414062;;;14.56;76.34
44531;BME280;30240;47.418;0.700;2023-10-08T01:55:19;101287.7685546875;;;14.66;76.18
44531;BME280;30240;47.418;0.700;2023-10-08T01:57:43;101287.7685546875;;;14.66;76.18
44531;BME280;30240;47.418;0.700;2023-10-08T02:00:09;101287.90893554688;;;14.64;76.06
44531;BME280;30240;47.418;0.700;2023-10-08T02:02:33;101283.740234375;;;14.67;76.24
44531;BME280;30240;47.418;0.700;2023-10-08T02:04:58;101287.81127929688;;;14.66;75.88
44531;BME280;30240;47.418;0.700;2023-10-08T02:07:23;101290.869140625;;;14.66;75.83
44531;BME280;30240;47.418;0.700;2023-10-08T02:09:48;101290.869140625;;;14.66;75.83
44531;BME280;30240;47.418;0.700;2023-10-08T02:12:13;101285.02197265625;;;14.5;76.57
44531;BME280;30240;47.418;0.700;2023-10-08T02:14:40;101282.72094726562;;;14.26;77.09
44531;BME280;30240;47.418;0.700;2023-10-08T02:17:04;101279.45556640625;;;14.18;77.29
44531;BME280;30240;47.418;0.700;2023-10-08T02:19:28;101273.46801757812;;;14.29;77.32
44531;BME280;30240;47.418;0.700;2023-10-08T02:21:54;101273.46801757812;;;14.29;77.32
44531;BME280;30240;47.418;0.700;2023-10-08T02:24:18;101273.37646484375;;;14.4;76.87
44531;BME280;30240;47.418;0.700;2023-10-08T02:26:43;101269.13452148438;;;14.46;76.57
44531;BME280;30240;47.418;0.700;2023-10-08T02:29:09;101272.8515625;;;14.5;76.6
44531;BME280;30240;47.418;0.700;2023-10-08T02:31:33;101272.29614257812;;;14.47;76.32
44531;BME280;30240;47.418;0.700;2023-10-08T02:33:58;101272.29614257812;;;14.47;76.32
44531;BME280;30240;47.418;0.700;2023-10-08T02:36:23;101271.93603515625;;;14.47;76.27
44531;BME280;30240;47.418;0.700;2023-10-08T02:38:48;101272.05200195312;;;14.43;76.39
44531;BME280;30240;47.418;0.700;2023-10-08T02:41:15;101270.48950195312;;;14.35;76.79
44531;BME280;30240;47.418;0.700;2023-10-08T02:43:38;101268.47534179688;;;14.35;76.68
44531;BME280;30240;47.418;0.700;2023-10-08T02:46:03;101265.3564453125;;;14.4;76.69
44531;BME280;30240;47.418;0.700;2023-10-08T02:48:28;101265.3564453125;;;14.4;76.69
44531;BME280;30240;47.418;0.700;2023-10-08T02:50:53;101264.29443359375;;;14.53;76.41
44531;BME280;30240;47.418;0.700;2023-10-08T02:53:18;101265.625;;;14.6;76.09
44531;BME280;30240;47.418;0.700;2023-10-08T02:55:44;101265.65551757812;;;14.67;75.96
44531;BME280;30240;47.418;0.700;2023-10-08T02:58:08;101265.99731445312;;;14.71;75.74
44531;BME280;30240;47.418;0.700;2023-10-08T03:00:33;101265.99731445312;;;14.71;75.74
44531;BME280;30240;47.418;0.700;2023-10-08T03:02:58;101266.1865234375;;;14.84;75.06
44531;BME280;30240;47.418;0.700;2023-10-08T03:05:23;101263.623046875;;;14.89;74.95
44531;BME280;30240;47.418;0.700;2023-10-08T03:07:48;101265.39306640625;;;14.81;74.84
44531;BME280;30240;47.418;0.700;2023-10-08T03:10:14;101270.17211914062;;;14.83;74.87
44531;BME280;30240;47.418;0.700;2023-10-08T03:12:38;101270.17211914062;;;14.83;74.87
44531;BME280;30240;47.418;0.700;2023-10-08T03:15:04;101271.90551757812;;;14.83;74.91
44531;BME280;30240;47.418;0.700;2023-10-08T03:17:28;101272.07641601562;;;14.77;74.95
44531;BME280;30240;47.418;0.700;2023-10-08T03:19:53;101268.994140625;;;14.81;74.62
44531;BME280;30240;47.418;0.700;2023-10-08T03:22:18;101266.40014648438;;;14.77;74.7
44531;BME280;30240;47.418;0.700;2023-10-08T03:24:43;101266.40014648438;;;14.77;74.7
44531;BME280;30240;47.418;0.700;2023-10-08T03:27:08;101264.29443359375;;;14.74;74.65
44531;BME280;30240;47.418;0.700;2023-10-08T03:29:34;101262.87231445312;;;14.74;74.78
44531;BME280;30240;47.418;0.700;2023-10-08T03:31:58;101260.90698242188;;;14.66;74.72
44531;BME280;30240;47.418;0.700;2023-10-08T03:34:23;101264.404296875;;;14.66;74.72
44531;BME280;30240;47.418;0.700;2023-10-08T03:36:48;101264.404296875;;;14.66;74.72
44531;BME280;30240;47.418;0.700;2023-10-08T03:39:14;101268.95141601562;;;14.59;74.74
44531;BME280;30240;47.418;0.700;2023-10-08T03:41:39;101269.28100585938;;;14.53;75.04
44531;BME280;30240;47.418;0.700;2023-10-08T03:44:04;101270.9228515625;;;14.6;74.69
44531;BME280;30240;47.418;0.700;2023-10-08T03:46:29;101273.2421875;;;14.61;74.44
44531;BME280;30240;47.418;0.700;2023-10-08T03:48:53;101273.2421875;;;14.61;74.44
44531;BME280;30240;47.418;0.700;2023-10-08T03:51:18;101268.24340820312;;;14.53;74.46
44531;BME280;30240;47.418;0.700;2023-10-08T03:53:43;101269.0185546875;;;14.56;74.2
44531;BME280;30240;47.418;0.700;2023-10-08T03:56:08;101267.66967773438;;;14.56;74.07
44531;BME280;30240;47.418;0.700;2023-10-08T03:58:34;101262.17041015625;;;14.56;74.04
44531;BME280;30240;47.418;0.700;2023-10-08T04:00:58;101262.17041015625;;;14.56;74.04
44531;BME280;30240;47.418;0.700;2023-10-08T04:03:23;101266.5283203125;;;14.6;73.6
44531;BME280;30240;47.418;0.700;2023-10-08T04:05:48;101262.6220703125;;;14.64;73.45
44531;BME280;30240;47.418;0.700;2023-10-08T04:08:13;101264.81323242188;;;14.71;72.99
44531;BME280;30240;47.418;0.700;2023-10-08T04:10:38;101263.4033203125;;;14.74;72.47
44531;BME280;30240;47.418;0.700;2023-10-08T04:13:04;101263.4033203125;;;14.74;72.47
44531;BME280;30240;47.418;0.700;2023-10-08T04:15:29;101259.48486328125;;;14.78;72.1
44531;BME280;30240;47.418;0.700;2023-10-08T04:17:53;101261.85913085938;;;14.84;71.79
44531;BME280;30240;47.418;0.700;2023-10-08T04:20:19;101265.8203125;;;14.81;71.79
44531;BME280;30240;47.418;0.700;2023-10-08T04:22:44;101260.2783203125;;;14.81;71.78
44531;BME280;30240;47.418;0.700;2023-10-08T04:25:08;101266.63818359375;;;14.73;72.48
44531;BME280;30240;47.418;0.700;2023-10-08T04:27:34;101266.63818359375;;;14.73;72.48
44531;BME280;30240;47.418;0.700;2023-10-08T04:29:59;101264.43481445312;;;14.49;73.46
44531;BME280;30240;47.418;0.700;2023-10-08T04:32:24;101259.7412109375;;;14.39;73.91
44531;BME280;30240;47.418;0.700;2023-10-08T04:34:49;101262.548828125;;;14.3;74.44
44531;BME280;30240;47.418;0.700;2023-10-08T04:37:14;101261.41357421875;;;14.25;74.33
44531;BME280;30240;47.418;0.700;2023-10-08T04:39:39;101261.41357421875;;;14.25;74.33
44531;BME280;30240;47.418;0.700;2023-10-08T04:42:04;101264.76440429688;;;14.19;74.49
44531;BME280;30240;47.418;0.700;2023-10-08T04:44:28;101263.55590820312;;;14.22;74.6
44531;BME280;30240;47.418;0.700;2023-10-08T04:46:53;101262.38403320312;;;14.25;74.43
44531;BME280;30240;47.418;0.700;2023-10-08T04:49:19;101264.2333984375;;;14.24;74.18
44531;BME280;30240;47.418;0.700;2023-10-08T04:51:43;101264.2333984375;;;14.24;74.18
44531;BME280;30240;47.418;0.700;2023-10-08T04:54:09;101264.26391601562;;;14.19;74.1
44531;BME280;30240;47.418;0.700;2023-10-08T04:56:33;101263.44604492188;;;14.26;73.66
44531;BME280;30240;47.418;0.700;2023-10-08T04:58:59;101261.9384765625;;;14.37;73.3
44531;BME280;30240;47.418;0.700;2023-10-08T05:01:23;101264.70336914062;;;14.32;73.36
44531;BME280;30240;47.418;0.700;2023-10-08T05:03:50;101264.70336914062;;;14.32;73.36
44531;BME280;30240;47.418;0.700;2023-10-08T05:06:13;101258.9599609375;;;14.3;73.61
44531;BME280;30240;47.418;0.700;2023-10-08T05:08:39;101262.31079101562;;;14.33;73.46
44531;BME280;30240;47.418;0.700;2023-10-08T05:11:04;101259.80224609375;;;14.36;73.31
44531;BME280;30240;47.418;0.700;2023-10-08T05:13:29;101263.33618164062;;;14.39;73.44
44531;BME280;30240;47.418;0.700;2023-10-08T05:15:53;101263.33618164062;;;14.39;73.44
44531;BME280;30240;47.418;0.700;2023-10-08T05:18:18;101268.3349609375;;;14.32;73.74
44531;BME280;30240;47.418;0.700;2023-10-08T05:20:44;101265.81420898438;;;14.26;74.23
44531;BME280;30240;47.418;0.700;2023-10-08T05:23:10;101263.17138671875;;;14.25;74.13
44531;BME280;30240;47.418;0.700;2023-10-08T05:25:33;101266.46118164062;;;14.19;74.44
44531;BME280;30240;47.418;0.700;2023-10-08T05:27:58;101266.46118164062;;;14.19;74.44
44531;BME280;30240;47.418;0.700;2023-10-08T05:30:25;101263.39111328125;;;14.11;74.58
44531;BME280;30240;47.418;0.700;2023-10-08T05:32:49;101257.62329101562;;;14.18;74.62
44531;BME280;30240;47.418;0.700;2023-10-08T05:35:14;101257.1533203125;;;14.09;74.51
44531;BME280;30240;47.418;0.700;2023-10-08T05:37:39;101258.7158203125;;;14.08;74.59
44531;BME280;30240;47.418;0.700;2023-10-08T05:40:04;101258.7158203125;;;14.08;74.59
44531;BME280;30240;47.418;0.700;2023-10-08T05:42:28;101256.91528320312;;;14.17;74.53
44531;BME280;30240;47.418;0.700;2023-10-08T05:44:54;101255.76782226562;;;14.11;74.6
44531;BME280;30240;47.418;0.700;2023-10-08T05:47:19;101259.65576171875;;;14.07;74.55
44531;BME280;30240;47.418;0.700;2023-10-08T05:49:44;101262.90893554688;;;14.02;74.9
44531;BME280;30240;47.418;0.700;2023-10-08T05:52:09;101259.95483398438;;;14.02;74.94
44531;BME280;30240;47.418;0.700;2023-10-08T05:54:34;101259.95483398438;;;14.02;74.94
44531;BME280;30240;47.418;0.700;2023-10-08T05:57:00;101258.86840820312;;;13.98;75.04
44531;BME280;30240;47.418;0.700;2023-10-08T05:59:23;101265.26489257812;;;13.95;74.98
44531;BME280;30240;47.418;0.700;2023-10-08T06:01:49;101261.35864257812;;;13.9;75.24
44531;BME280;30240;47.418;0.700;2023-10-08T06:04:14;101260.48583984375;;;13.91;75.15
44531;BME280;30240;47.418;0.700;2023-10-08T06:06:38;101260.48583984375;;;13.91;75.15
44531;BME280;30240;47.418;0.700;2023-10-08T06:09:04;101262.8662109375;;;13.83;75.33
44531;BME280;30240;47.418;0.700;2023-10-08T06:11:29;101264.61791992188;;;13.87;75.49
44531;BME280;30240;47.418;0.700;2023-10-08T06:13:54;101265.88134765625;;;13.83;75.35
44531;BME280;30240;47.418;0.700;2023-10-08T06:16:18;101267.82836914062;;;13.83;75.51
44531;BME280;30240;47.418;0.700;2023-10-08T06:18:43;101267.82836914062;;;13.83;75.51
44531;BME280;30240;47.418;0.700;2023-10-08T06:21:09;101273.4375;;;13.87;75.44
44531;BME280;30240;47.418;0.700;2023-10-08T06:23:35;101271.32568359375;;;13.87;75.56
44531;BME280;30240;47.418;0.700;2023-10-08T06:25:58;101275.86059570312;;;13.87;75.42
44531;BME280;30240;47.418;0.700;2023-10-08T06:28:25;101276.42211914062;;;13.91;75.06
44531;BME280;30240;47.418;0.700;2023-10-08T06:30:50;101276.42211914062;;;13.91;75.06
44531;BME280;30240;47.418;0.700;2023-10-08T06:33:14;101273.47412109375;;;14.05;74.68
44531;BME280;30240;47.418;0.700;2023-10-08T06:35:39;101278.08837890625;;;14.09;74.35
44531;BME280;30240;47.418;0.700;2023-10-08T06:38:04;101282.36694335938;;;14.14;74.11
44531;BME280;30240;47.418;0.700;2023-10-08T06:40:29;101282.03735351562;;;14.33;73.53
44531;BME280;30240;47.418;0.700;2023-10-08T06:42:54;101282.03735351562;;;14.33;73.53
44531;BME280;30240;47.418;0.700;2023-10-08T06:45:19;101279.3212890625;;;14.46;72.91
44531;BME280;30240;47.418;0.700;2023-10-08T06:47:43;101287.20092773438;;;14.53;72.81
44531;BME280;30240;47.418;0.700;2023-10-08T06:50:09;101291.51611328125;;;14.55;72.48
44531;BME280;30240;47.418;0.700;2023-10-08T06:52:33;101302.1728515625;;;14.59;72.36
44531;BME280;30240;47.418;0.700;2023-10-08T06:54:58;101302.1728515625;;;14.59;72.36
44531;BME280;30240;47.418;0.700;2023-10-08T06:57:24;101297.73559570312;;;14.84;72.14
44531;BME280;30240;47.418;0.700;2023-10-08T06:59:49;101295.64208984375;;;14.99;71.7
44531;BME280;30240;47.418;0.700;2023-10-08T07:02:14;101300.927734375;;;15.01;71.44
44531;BME280;30240;47.418;0.700;2023-10-08T07:04:39;101298.15673828125;;;14.85;71.64
44531;BME280;30240;47.418;0.700;2023-10-08T07:07:03;101298.15673828125;;;14.85;71.64
44531;BME280;30240;47.418;0.700;2023-10-08T07:09:29;101295.78247070312;;;14.98;71.56
44531;BME280;30240;47.418;0.700;2023-10-08T07:11:54;101308.69750976562;;;15.15;71.23
44531;BME280;30240;47.418;0.700;2023-10-08T07:14:19;101311.328125;;;15.13;71.12
44531;BME280;30240;47.418;0.700;2023-10-08T07:16:43;101310.4248046875;;;15.39;70.96
44531;BME280;30240;47.418;0.700;2023-10-08T07:19:09;101310.4248046875;;;15.39;70.96
44531;BME280;30240;47.418;0.700;2023-10-08T07:21:33;101309.228515625;;;15.82;70.21
44531;BME280;30240;47.418;0.700;2023-10-08T07:23:59;101308.18481445312;;;15.85;69.6
44531;BME280;30240;47.418;0.700;2023-10-08T07:26:24;101313.22021484375;;;15.98;69.14
44531;BME280;30240;47.418;0.700;2023-10-08T07:28:49;101309.9853515625;;;16.35;68.07
44531;BME280;30240;47.418;0.700;2023-10-08T07:31:14;101314.5751953125;;;16.51;67.8
44531;BME280;30240;47.418;0.700;2023-10-08T07:33:39;101314.5751953125;;;16.51;67.8
44531;BME280;30240;47.418;0.700;2023-10-08T07:36:04;101311.29760742188;;;16.83;66.74
44531;BME280;30240;47.418;0.700;2023-10-08T07:38:28;101311.79809570312;;;16.86;65.89
44531;BME280;30240;47.418;0.700;2023-10-08T07:40:55;101306.97021484375;;;16.93;65.98
44531;BME280;30240;47.418;0.700;2023-10-08T07:43:19;101309.14916992188;;;16.89;65.81
44531;BME280;30240;47.418;0.700;2023-10-08T07:45:43;101309.14916992188;;;16.89;65.81
44531;BME280;30240;47.418;0.700;2023-10-08T07:48:08;101309.765625;;;17.27;65.32
44531;BME280;30240;47.418;0.700;2023-10-08T07:50:33;101312.53051757812;;;17.35;64.88
44531;BME280;30240;47.418;0.700;2023-10-08T07:52:59;101316.65649414062;;;17.86;65.01
44531;BME280;30240;47.418;0.700;2023-10-08T07:55:23;101320.263671875;;;17.8;63.35
44531;BME280;30240;47.418;0.700;2023-10-08T07:57:48;101320.263671875;;;17.8;63.35
44531;BME280;30240;47.418;0.700;2023-10-08T08:00:14;101324.69482421875;;;18.42;63.53
44531;BME280;30240;47.418;0.700;2023-10-08T08:02:39;101324.9267578125;;;18.53;62.26
44531;BME280;30240;47.418;0.700;2023-10-08T08:05:04;101325.341796875;;;18.21;62.1
44531;BME280;30240;47.418;0.700;2023-10-08T08:07:28;101323.98681640625;;;18.41;61.74
44531;BME280;30240;47.418;0.700;2023-10-08T08:09:54;101323.98681640625;;;18.41;61.74
44531;BME280;30240;47.418;0.700;2023-10-08T08:12:19;101330.27954101562;;;19.04;61.68
44531;BME280;30240;47.418;0.700;2023-10-08T08:14:44;101331.43920898438;;;18.83;60.99
44531;BME280;30240;47.418;0.700;2023-10-08T08:17:08;101333.48388671875;;;19.1;60.22
44531;BME280;30240;47.418;0.700;2023-10-08T08:19:33;101335.9619140625;;;19.7;58.79
44531;BME280;30240;47.418;0.700;2023-10-08T08:21:58;101335.9619140625;;;19.7;58.79
44531;BME280;30240;47.418;0.700;2023-10-08T08:24:23;101332.04956054688;;;19.71;58.53
44531;BME280;30240;47.418;0.700;2023-10-08T08:26:49;101333.16650390625;;;19.67;58.0
44531;BME280;30240;47.418;0.700;2023-10-08T08:29:13;101338.671875;;;19.96;58.87
44531;BME280;30240;47.418;0.700;2023-10-08T08:31:38;101340.92407226562;;;20.2;57.78
44531;BME280;30240;47.418;0.700;2023-10-08T08:34:06;101340.92407226562;;;20.2;57.78
44531;BME280;30240;47.418;0.700;2023-10-08T08:36:29;101334.53369140625;;;21.29;56.82
44531;BME280;30240;47.418;0.700;2023-10-08T08:38:54;101334.18579101562;;;21.75;53.73
44531;BME280;30240;47.418;0.700;2023-10-08T08:41:20;101330.32836914062;;;22.28;52.75
44531;BME280;30240;47.418;0.700;2023-10-08T08:43:44;101327.13012695312;;;21.44;53.77
44531;BME280;30240;47.418;0.700;2023-10-08T08:46:09;101327.13012695312;;;21.44;53.77
44531;BME280;30240;47.418;0.700;2023-10-08T08:48:34;101327.65502929688;;;23.08;51.67
44531;BME280;30240;47.418;0.700;2023-10-08T08:50:59;101326.220703125;;;23.61;51.6
44531;BME280;30240;47.418;0.700;2023-10-08T08:53:24;101326.67236328125;;;24.36;48.58
44531;BME280;30240;47.418;0.700;2023-10-08T08:55:49;101324.24926757812;;;23.58;51.69
44531;BME280;30240;47.418;0.700;2023-10-08T08:58:14;101316.66259765625;;;23.97;48.8
44531;BME280;30240;47.418;0.700;2023-10-08T09:00:40;101316.66259765625;;;23.97;48.8
44531;BME280;30240;47.418;0.700;2023-10-08T09:03:04;101313.34228515625;;;24.49;48.74
44531;BME280;30240;47.418;0.700;2023-10-08T09:05:28;101308.45336914062;;;24.25;49.66
44531;BME280;30240;47.418;0.700;2023-10-08T09:07:55;101309.619140625;;;24.0;49.72
44531;BME280;30240;47.418;0.700;2023-10-08T09:10:19;101307.53784179688;;;24.76;46.97
44531;BME280;30240;47.418;0.700;2023-10-08T09:12:43;101307.53784179688;;;24.76;46.97
44531;BME280;30240;47.418;0.700;2023-10-08T09:15:10;101307.03125;;;24.7;47.12
44531;BME280;30240;47.418;0.700;2023-10-08T09:17:34;101308.70361328125;;;25.07;46.96
44531;BME280;30240;47.418;0.700;2023-10-08T09:20:00;101305.15747070312;;;25.69;44.63
44531;BME280;30240;47.418;0.700;2023-10-08T09:22:23;101303.49731445312;;;26.35;43.87
44531;BME280;30240;47.418;0.700;2023-10-08T09:24:48;101303.49731445312;;;26.35;43.87
44531;BME280;30240;47.418;0.700;2023-10-08T09:27:13;101300.20141601562;;;25.88;45.86
44531;BME280;30240;47.418;0.700;2023-10-08T09:29:39;101296.435546875;;;27.5;42.31
44531;BME280;30240;47.418;0.700;2023-10-08T09:32:04;101289.44702148438;;;27.38;41.4
44531;BME280;30240;47.418;0.700;2023-10-08T09:34:30;101288.76342773438;;;26.78;40.72
44531;BME280;30240;47.418;0.700;2023-10-08T09:36:55;101288.76342773438;;;26.78;40.72
44531;BME280;30240;47.418;0.700;2023-10-08T09:39:19;101280.7373046875;;;25.57;42.65
44531;BME280;30240;47.418;0.700;2023-10-08T09:41:46;101284.74731445312;;;26.39;42.33
44531;BME280;30240;47.418;0.700;2023-10-08T09:44:09;101283.67309570312;;;25.88;42.2
44531;BME280;30240;47.418;0.700;2023-10-08T09:46:35;101281.58569335938;;;26.06;42.71
44531;BME280;30240;47.418;0.700;2023-10-08T09:49:00;101281.58569335938;;;26.06;42.71
44531;BME280;30240;47.418;0.700;2023-10-08T09:51:24;101281.89086914062;;;26.72;42.13
44531;BME280;30240;47.418;0.700;2023-10-08T09:53:52;101275.81176757812;;;26.7;40.49
44531;BME280;30240;47.418;0.700;2023-10-08T09:56:14;101274.29809570312;;;25.69;42.16
44531;BME280;30240;47.418;0.700;2023-10-08T09:58:39;101274.63989257812;;;26.64;42.15
44531;BME280;30240;47.418;0.700;2023-10-08T10:01:04;101274.63989257812;;;26.64;42.15
44531;BME280;30240;47.418;0.700;2023-10-08T10:03:29;101276.40380859375;;;27.03;41.27
44531;BME280;30240;47.418;0.700;2023-10-08T10:05:54;101273.876953125;;;26.75;41.52
44531;BME280;30240;47.418;0.700;2023-10-08T10:08:19;101278.98559570312;;;27.19;42.45
44531;BME280;30240;47.418;0.700;2023-10-08T10:10:44;101273.59619140625;;;27.78;39.63
44531;BME280;30240;47.418;0.700;2023-10-08T10:13:10;101273.59619140625;;;27.78;39.63
44531;BME280;30240;47.418;0.700;2023-10-08T10:15:34;101276.47705078125;;;27.82;40.33
44531;BME280;30240;47.418;0.700;2023-10-08T10:18:13;101270.76416015625;;;29.02;38.66
44531;BME280;30240;47.418;0.700;2023-10-08T10:20:23;101268.5791015625;;;28.17;39.64
44531;BME280;30240;47.418;0.700;2023-10-08T10:22:48;101268.75;;;28.43;40.44
44531;BME280;30240;47.418;0.700;2023-10-08T10:25:16;101268.75;;;28.43;40.44
44531;BME280;30240;47.418;0.700;2023-10-08T10:27:38;101264.14184570312;;;27.92;40.78
44531;BME280;30240;47.418;0.700;2023-10-08T10:30:04;101263.75122070312;;;27.9;41.02
44531;BME280;30240;47.418;0.700;2023-10-08T10:32:29;101260.82763671875;;;28.33;40.87
44531;BME280;30240;47.418;0.700;2023-10-08T10:34:53;101259.73510742188;;;28.02;41.05
44531;BME280;30240;47.418;0.700;2023-10-08T10:37:19;101256.8115234375;;;27.59;42.15
44531;BME280;30240;47.418;0.700;2023-10-08T10:39:50;101256.8115234375;;;27.59;42.15
44531;BME280;30240;47.418;0.700;2023-10-08T10:42:09;101259.24072265625;;;27.66;41.74
44531;BME280;30240;47.418;0.700;2023-10-08T10:44:34;101262.158203125;;;28.09;42.23
44531;BME280;30240;47.418;0.700;2023-10-08T10:46:59;101255.94482421875;;;28.58;40.64
44531;BME280;30240;47.418;0.700;2023-10-08T10:49:24;101251.61743164062;;;28.06;42.15
44531;BME280;30240;47.418;0.700;2023-10-08T10:51:50;101251.61743164062;;;28.06;42.15
44531;BME280;30240;47.418;0.700;2023-10-08T10:54:15;101247.68676757812;;;28.24;41.47
44531;BME280;30240;47.418;0.700;2023-10-08T10:56:38;101250.10986328125;;;28.79;40.76
44531;BME280;30240;47.418;0.700;2023-10-08T10:59:04;101248.6328125;;;29.65;40.13
44531;BME280;30240;47.418;0.700;2023-10-08T11:01:29;101252.09350585938;;;29.03;40.77
44531;BME280;30240;47.418;0.700;2023-10-08T11:03:56;101252.09350585938;;;29.03;40.77
44531;BME280;30240;47.418;0.700;2023-10-08T11:06:19;101245.95336914062;;;29.81;39.76
44531;BME280;30240;47.418;0.700;2023-10-08T11:08:43;101247.17407226562;;;30.14;39.21
44531;BME280;30240;47.418;0.700;2023-10-08T11:11:09;101249.7802734375;;;30.73;39.15
44531;BME280;30240;47.418;0.700;2023-10-08T11:13:34;101247.29614257812;;;30.81;37.76
44531;BME280;30240;47.418;0.700;2023-10-08T11:16:03;101247.29614257812;;;30.81;37.76
44531;BME280;30240;47.418;0.700;2023-10-08T11:18:25;101239.20288085938;;;29.27;38.95
44531;BME280;30240;47.418;0.700;2023-10-08T11:20:50;101239.111328125;;;30.08;38.24
44531;BME280;30240;47.418;0.700;2023-10-08T11:23:30;101237.43896484375;;;30.62;37.63